• Join FlightAware (Why Join?)
  • Login
  • US Flag 
03:30PM EDT


 

Airport Tracker/Info


-or-


 

Live Flight TrackerFlight Track Log ✈ SKW6432 ✈ 20-Apr-2013 ✈ KSAN - KLAX

Flight Track Log - Related Links

Times and Time Zones

All times are in EDT time to prevent confusion due to time zone crossing. See the SKW6432 flight status page for this flight to view local times or setup timezone preferences in your user account.

Time Position Orientation Groundspeed Altitude Reporting Facility
EDT Latitude Longitude Course Direction KTS MPH feet Rate Location/Type
10:11PM 32.7667 -117.2500 320° Northwest 189 217 2,200  Level Southern California TRACON
10:12PM 32.7833 -117.3000 292° West 194 223 3,700 1,200 Climbing Southern California TRACON
10:12PM 32.7953 -117.3167 310° West 191 220 3,900 1,080 Climbing Los Angeles Center
10:13PM 32.8860 -117.3360 320° Northwest  Level FlightAware Approximate
10:13PM 32.8247 -117.3742 301° West 201 231 5,200  Level Los Angeles Center
10:14PM 32.9372 -117.3872 320° Northwest  Level FlightAware Approximate
10:14PM 32.8608 -117.4475 300° West 211 243 6,900  Level Los Angeles Center
10:15PM 32.9884 -117.4384 320° Northwest  Level FlightAware Approximate
10:15PM 32.9122 -117.4883 326° Northwest 221 254 8,000  Level Los Angeles Center
10:16PM 33.0348 -117.4846 320° Northwest  Level FlightAware Approximate
10:16PM 32.9681 -117.5367 324° Northwest 242 278 8,000  Level Los Angeles Center
10:17PM 33.0161 -117.6058 310° West 267 307 8,000  Level Los Angeles Center
10:18PM 33.0594 -117.6711 308° West 255 293 8,000  Level Los Angeles Center
10:19PM 33.1039 -117.7322 311° West 246 283 8,000  Level Los Angeles Center
10:20PM 33.1539 -117.7811 321° Northwest 238 274 8,000  Level Los Angeles Center
10:21PM 33.2156 -117.8097 339° North 236 272 8,000  Level Los Angeles Center
10:22PM 33.2783 -117.8364 340° North 239 275 8,000  Level Los Angeles Center
10:23PM 33.3531 -117.8481 353° North 239 275 8,000  Level Los Angeles Center
10:24PM 33.4139 -117.8353 10° North 228 262 8,000  Level Los Angeles Center
10:24PM 33.4333 -117.8333 North 212 244 8,000  Level Southern California TRACON
10:25PM 33.4667 -117.7833 51° Northeast 200 230 8,000  Level Southern California TRACON
10:26PM 33.5167 -117.7667 16° North 203 234 8,000  Level Southern California TRACON
10:28PM 33.5500 -117.8167 309° West 208 239 8,000  Level Southern California TRACON
10:29PM 33.6000 -117.8667 320° Northwest 211 243 8,000 -180 Level Southern California TRACON
10:29PM 33.6222 -117.8981 310° West 214 246 7,700 -720 Descending Los Angeles Center
10:30PM 33.6500 -117.9167 331° Northwest 253 291 7,300 -540 Descending Southern California TRACON
10:31PM 33.7000 -117.9833 312° West 262 302 7,000 -180 Descending Southern California TRACON
10:32PM 33.7500 -118.0333 320° Northwest 260 299 7,000  Level Southern California TRACON
10:33PM 33.8167 -118.0667 337° Northwest 257 296 7,000 -360 Level Southern California TRACON
10:34PM 33.8667 -118.1000 331° Northwest 217 250 6,300 -900 Descending Southern California TRACON
10:34PM 33.9117 -118.1333 328° Northwest 223 257 5,400 -1,260 Descending Los Angeles Center
10:35PM 33.9364 -118.1828 301° West 223 257 4,100 -1,620 Descending Los Angeles Center
10:36PM 33.9517 -118.2642 283° West 214 246 2,200 -1,320 Descending Los Angeles Center
10:37PM 33.9447 -118.3125 260° West 198 228 1,400 -840 Descending Los Angeles Center